Time;durP1;ratioP1;P1;durP2;ratioP2;P2;SDS_P1;SDS_P2;PMS_P1;PMS_P2;Temp;Humidity;BMP_temperature;BMP_pressure;BME280_temperature;BME280_humidity;BME280_pressure;Samples;Min_cycle;Max_cycle;Signal;HPM_P1;HPM_P2
2022/05/05 00:01:57;;;;;;;3.30;1.70;;;;;;;5.40;48.31;101069.21;1696127;83;20916;-42
2022/05/05 00:04:24;;;;;;;2.00;1.35;;;;;;;5.36;49.04;101071.30;1696024;84;21015;-42
2022/05/05 00:06:51;;;;;;;10.18;2.08;;;;;;;5.28;48.91;101071.20;1695966;83;20964;-42
2022/05/05 00:09:17;;;;;;;7.05;1.75;;;;;;;5.23;49.48;101070.72;1666307;84;21055;-42
2022/05/05 00:14:33;;;;;;;4.00;1.42;;;;;;;5.08;50.11;101074.78;1695967;84;21017;-42
2022/05/05 00:17:04;;;;;;;2.75;1.72;;;;;;;4.98;50.80;101077.63;1695614;84;20917;-42
2022/05/05 00:19:34;;;;;;;4.37;1.50;;;;;;;4.92;50.74;101076.27;1696045;84;21499;-41
2022/05/05 00:22:02;;;;;;;10.43;1.87;;;;;;;4.84;51.37;101081.72;1696057;84;20999;-42
2022/05/05 00:24:29;;;;;;;6.37;1.65;;;;;;;4.75;51.39;101083.28;1666233;84;21186;-42
2022/05/05 00:26:56;;;;;;;12.95;2.00;;;;;;;4.66;51.57;101089.55;1695663;83;21019;-43
2022/05/05 00:29:23;;;;;;;4.97;1.45;;;;;;;4.54;52.58;101083.80;1695900;84;20924;-41
2022/05/05 00:31:49;;;;;;;6.53;2.70;;;;;;;4.54;52.58;101083.80;1695881;84;21647;-42
2022/05/05 00:34:17;;;;;;;3.72;1.70;;;;;;;4.49;53.17;101090.56;1696085;84;20940;-41
2022/05/05 00:36:44;;;;;;;3.75;1.85;;;;;;;4.45;53.31;101085.80;1696372;84;21152;-42
2022/05/05 00:39:11;;;;;;;6.70;1.82;;;;;;;4.43;53.59;101085.34;1695808;84;21020;-42
2022/05/05 00:41:42;;;;;;;6.72;1.77;;;;;;;4.28;53.60;101092.32;1696016;83;21525;-42
2022/05/05 00:44:09;;;;;;;4.72;1.62;;;;;;;4.28;53.60;101092.32;1695802;83;21090;-42
2022/05/05 00:46:36;;;;;;;4.15;1.60;;;;;;;4.17;53.77;101094.28;1695919;83;20920;-42
2022/05/05 00:49:03;;;;;;;7.85;1.60;;;;;;;4.11;53.89;101097.14;1695854;84;21037;-42
2022/05/05 00:51:30;;;;;;;8.05;1.72;;;;;;;4.07;54.12;101104.33;1695835;83;21439;-42
2022/05/05 00:53:57;;;;;;;2.27;1.65;;;;;;;4.01;54.46;101096.11;1695879;84;20956;-42
2022/05/05 00:56:24;;;;;;;7.03;1.67;;;;;;;3.94;54.66;101103.23;1695902;84;20965;-42
2022/05/05 00:58:53;;;;;;;7.05;1.90;;;;;;;3.90;55.14;101110.42;1696078;84;21540;-42
2022/05/05 01:01:21;;;;;;;7.62;1.70;;;;;;;3.85;55.07;101116.72;1696010;84;21770;-42
2022/05/05 01:03:48;;;;;;;3.50;1.32;;;;;;;3.78;55.58;101109.77;1695953;84;21015;-42
2022/05/05 01:06:15;;;;;;;6.33;1.82;;;;;;;3.71;55.67;101110.92;1695860;84;21011;-42
2022/05/05 01:08:42;;;;;;;8.10;1.77;;;;;;;3.69;55.79;101115.16;1695936;84;20964;-42
2022/05/05 01:11:09;;;;;;;5.75;1.85;;;;;;;3.68;56.36;101117.27;1695972;84;20952;-42
2022/05/05 01:13:40;;;;;;;4.42;1.80;;;;;;;3.59;56.73;101118.34;1695748;83;21281;-42
2022/05/05 01:16:09;;;;;;;3.83;2.08;;;;;;;3.59;56.73;101118.34;1695861;84;21003;-42
2022/05/05 01:18:37;;;;;;;2.62;1.80;;;;;;;3.59;56.45;101120.50;1695882;84;20968;-42
2022/05/05 01:21:03;;;;;;;6.60;1.90;;;;;;;3.55;56.80;101126.79;1695874;84;20987;-42
2022/05/05 01:23:30;;;;;;;2.90;1.60;;;;;;;3.51;57.01;101121.16;1666392;84;21560;-42
2022/05/05 01:28:45;;;;;;;4.15;1.80;;;;;;;3.50;57.10;101126.68;1695900;84;21419;-41
2022/05/05 01:31:12;;;;;;;6.47;1.62;;;;;;;3.45;57.26;101130.44;1696103;84;20995;-42
2022/05/05 01:33:39;;;;;;;5.08;1.60;;;;;;;3.39;57.32;101130.28;1695933;84;20936;-41
2022/05/05 01:36:07;;;;;;;1.72;1.40;;;;;;;3.35;57.61;101127.21;1666003;84;20996;-42
2022/05/05 01:38:36;;;;;;;3.15;1.50;;;;;;;3.25;57.78;101135.09;1695919;84;21769;-42
2022/05/05 01:41:07;;;;;;;6.80;1.57;;;;;;;3.20;58.35;101142.24;1695886;84;21008;-42
2022/05/05 01:43:34;;;;;;;3.27;1.80;;;;;;;3.20;58.35;101142.24;1694566;84;20944;-42
2022/05/05 01:46:01;;;;;;;3.98;1.40;;;;;;;3.13;58.42;101138.67;1695835;84;20972;-42
2022/05/05 01:48:28;;;;;;;4.60;2.02;;;;;;;3.10;58.81;101145.00;1710734;83;20898;-42
2022/05/05 01:50:55;;;;;;;4.03;1.32;;;;;;;3.07;58.48;101143.22;1692309;83;22513;-42
2022/05/05 01:53:22;;;;;;;5.97;1.77;;;;;;;3.04;58.38;101152.11;1716919;83;20958;-41
2022/05/05 01:55:49;;;;;;;2.25;1.45;;;;;;;3.01;58.34;101157.16;1716940;83;21037;-41
2022/05/05 01:58:16;;;;;;;6.12;1.90;;;;;;;3.00;58.59;101154.15;1692091;83;21032;-42
2022/05/05 02:00:43;;;;;;;9.33;1.95;;;;;;;2.98;58.68;101152.81;1717032;83;20985;-42
2022/05/05 02:03:12;;;;;;;3.02;1.62;;;;;;;2.94;58.70;101158.69;1716954;83;21059;-42
2022/05/05 02:05:43;;;;;;;7.15;1.67;;;;;;;2.90;58.94;101154.73;1716894;83;21025;-41
2022/05/05 02:08:11;;;;;;;1.98;1.62;;;;;;;2.84;58.88;101155.47;1715430;83;20962;-41
2022/05/05 02:10:37;;;;;;;10.25;2.08;;;;;;;2.80;58.98;101157.08;1716813;83;20918;-42
2022/05/05 02:13:05;;;;;;;5.15;2.27;;;;;;;2.77;59.06;101159.56;1721898;82;21366;-42
2022/05/05 02:15:34;;;;;;;5.40;1.80;;;;;;;2.77;59.17;101165.07;1692685;84;21769;-42
2022/05/05 02:18:12;;;;;;;8.75;2.00;;;;;;;2.71;59.24;101167.94;1692593;84;21585;-42
2022/05/05 02:20:39;;;;;;;7.05;1.70;;;;;;;2.66;59.42;101169.52;1692640;84;20939;-42
2022/05/05 02:23:06;;;;;;;5.85;2.30;;;;;;;2.62;59.41;101178.33;1667065;84;21493;-42
2022/05/05 02:25:34;;;;;;;4.33;2.12;;;;;;;2.61;59.59;101184.27;1692777;84;20959;-42
2022/05/05 02:28:01;;;;;;;16.25;2.17;;;;;;;2.62;59.58;101186.88;1721623;82;21075;-42
2022/05/05 02:30:29;;;;;;;4.25;1.90;;;;;;;2.66;59.81;101192.52;1695054;83;20856;-42
2022/05/05 02:32:55;;;;;;;9.10;2.15;;;;;;;2.68;59.73;101193.86;1692790;84;21014;-42
2022/05/05 02:35:22;;;;;;;4.78;1.70;;;;;;;2.69;59.68;101196.44;1692610;84;21030;-42
2022/05/05 02:40:35;;;;;;;3.25;1.80;;;;;;;2.80;59.47;101191.59;1692779;84;21328;-42
2022/05/05 02:43:01;;;;;;;2.75;1.82;;;;;;;2.88;59.33;101207.99;1692813;84;20908;-42
2022/05/05 02:45:28;;;;;;;4.17;1.75;;;;;;;2.93;59.06;101203.00;1692757;84;20891;-42
2022/05/05 02:47:55;;;;;;;9.03;1.60;;;;;;;2.98;58.90;101209.52;1685561;84;21415;-42
2022/05/05 02:50:22;;;;;;;9.88;2.30;;;;;;;3.01;58.85;101214.71;1710680;82;21031;-42
2022/05/05 02:52:49;;;;;;;7.33;1.75;;;;;;;3.10;58.84;101214.92;1715241;82;21152;-42
2022/05/05 02:55:16;;;;;;;3.65;1.57;;;;;;;3.19;58.64;101216.00;1735809;81;20973;-42
2022/05/05 02:57:43;;;;;;;4.22;1.67;;;;;;;3.22;58.61;101220.75;1735831;82;20921;-42
2022/05/05 03:00:12;;;;;;;4.83;1.75;;;;;;;3.28;58.37;101229.00;1735633;82;20944;-41
2022/05/05 03:02:42;;;;;;;4.85;1.70;;;;;;;3.37;58.02;101230.92;1735891;82;21414;-42
2022/05/05 03:05:15;;;;;;;8.13;2.12;;;;;;;3.51;57.60;101236.37;1735947;82;22053;-42
2022/05/05 03:07:42;;;;;;;2.47;1.62;;;;;;;3.63;57.14;101235.78;1735861;82;20984;-42
2022/05/05 03:10:09;;;;;;;8.83;2.05;;;;;;;3.76;57.02;101245.45;1739741;81;20878;-42
2022/05/05 03:12:36;;;;;;;12.20;2.08;;;;;;;3.84;56.75;101241.79;1735831;82;21012;-42
2022/05/05 03:15:04;;;;;;;5.83;1.65;;;;;;;3.93;56.56;101248.41;1735948;81;20937;-42
2022/05/05 03:17:31;;;;;;;3.62;2.08;;;;;;;4.05;56.28;101245.25;1736079;81;22053;-42
2022/05/05 03:19:58;;;;;;;5.12;1.55;;;;;;;4.25;55.76;101261.03;1735922;82;20913;-42
2022/05/05 03:22:25;;;;;;;3.50;1.60;;;;;;;4.25;55.76;101261.03;1736019;82;20925;-42
2022/05/05 03:24:51;;;;;;;1.92;1.47;;;;;;;4.37;54.76;101262.98;1735956;82;20963;-43
2022/05/05 03:27:18;;;;;;;6.17;2.30;;;;;;;4.53;54.29;101271.84;1735970;82;20933;-42
2022/05/05 03:29:46;;;;;;;5.30;1.92;;;;;;;4.77;53.36;101269.30;1735905;82;21156;-42
2022/05/05 03:32:13;;;;;;;3.37;1.70;;;;;;;4.84;53.00;101276.26;1736082;82;21513;-42
2022/05/05 03:34:40;;;;;;;5.47;1.85;;;;;;;4.84;53.00;101276.26;1735978;82;20925;-42
2022/05/05 03:37:06;;;;;;;3.00;1.50;;;;;;;4.96;53.00;101274.77;1735997;81;20909;-42
2022/05/05 03:39:33;;;;;;;3.02;1.75;;;;;;;5.06;52.70;101284.34;1736092;82;20850;-42
2022/05/05 03:41:59;;;;;;;4.65;1.85;;;;;;;5.22;52.77;101286.75;1736171;82;21989;-43
2022/05/05 03:44:26;;;;;;;4.80;1.70;;;;;;;5.39;52.52;101293.45;1736118;82;21403;-43
2022/05/05 03:46:52;;;;;;;2.02;1.80;;;;;;;5.59;51.84;101292.91;1736036;81;20972;-42
2022/05/05 03:49:19;;;;;;;4.37;1.70;;;;;;;5.75;51.81;101289.75;1725939;82;21427;-42
2022/05/05 03:51:45;;;;;;;2.92;1.60;;;;;;;5.94;51.28;101305.45;1744135;82;20984;-42
2022/05/05 03:54:12;;;;;;;10.05;1.80;;;;;;;6.10;50.98;101304.39;1744124;82;22329;-42
2022/05/05 03:56:39;;;;;;;3.35;1.60;;;;;;;6.25;50.97;101300.75;1744031;81;21007;-42
2022/05/05 03:59:06;;;;;;;6.10;2.20;;;;;;;6.41;50.71;101300.52;1744413;82;21529;-42
2022/05/05 04:01:33;;;;;;;4.15;1.92;;;;;;;6.57;50.07;101305.42;1744074;82;20897;-43
2022/05/05 04:04:00;;;;;;;5.55;2.05;;;;;;;6.68;50.06;101299.11;1743965;82;20993;-42
2022/05/05 04:06:26;;;;;;;5.33;2.05;;;;;;;6.82;49.90;101308.67;1744153;82;21098;-42
2022/05/05 04:08:53;;;;;;;6.20;1.67;;;;;;;7.00;49.39;101309.31;1743985;82;21518;-43
2022/05/05 04:11:19;;;;;;;10.38;2.12;;;;;;;7.16;48.93;101309.03;1744221;82;21037;-43
2022/05/05 04:13:46;;;;;;;10.08;2.08;;;;;;;7.28;48.55;101309.58;1744009;82;20949;-43
2022/05/05 04:16:13;;;;;;;11.75;2.05;;;;;;;7.41;47.96;101314.41;1743962;82;20984;-43
2022/05/05 04:18:40;;;;;;;13.93;1.90;;;;;;;7.50;47.68;101316.20;1743835;82;21164;-43
2022/05/05 04:21:06;;;;;;;5.03;1.50;;;;;;;7.60;47.90;101327.00;1744132;82;20964;-43
2022/05/05 04:23:33;;;;;;;4.40;1.40;;;;;;;7.71;47.57;101323.22;1744085;82;20975;-43
2022/05/05 04:26:00;;;;;;;2.02;1.37;;;;;;;7.85;47.47;101319.04;1744040;82;21008;-43
2022/05/05 04:28:27;;;;;;;10.80;1.60;;;;;;;7.95;46.58;101326.38;1744181;82;20945;-43
2022/05/05 04:30:53;;;;;;;3.27;1.30;;;;;;;7.99;46.95;101321.70;1744114;82;21107;-43
2022/05/05 04:33:20;;;;;;;7.22;2.00;;;;;;;8.13;46.46;101319.62;1744103;82;20968;-42
2022/05/05 04:35:47;;;;;;;11.57;1.77;;;;;;;8.21;46.36;101320.55;1744106;82;20920;-42
2022/05/05 04:38:13;;;;;;;4.70;1.47;;;;;;;8.32;46.25;101312.83;1714879;82;20893;-42
2022/05/05 04:40:40;;;;;;;6.83;1.42;;;;;;;8.45;46.25;101321.48;1744040;82;20941;-42
2022/05/05 04:43:07;;;;;;;3.27;1.57;;;;;;;8.62;46.20;101334.06;1743928;82;21051;-42
2022/05/05 04:45:34;;;;;;;6.42;2.02;;;;;;;8.84;45.84;101337.14;1743917;82;20968;-45
2022/05/05 04:48:00;;;;;;;9.60;3.95;;;;;;;9.02;45.33;101335.05;1743274;81;20995;-42
2022/05/05 04:50:27;;;;;;;17.02;1.90;;;;;;;9.16;44.66;101350.58;1735988;82;20964;-42
2022/05/05 04:52:54;;;;;;;5.80;1.70;;;;;;;9.26;43.55;101352.75;1735941;82;20976;-42
2022/05/05 04:55:21;;;;;;;7.22;1.30;;;;;;;9.23;44.16;101350.16;1735978;82;21142;-42
2022/05/05 04:57:48;;;;;;;5.67;2.70;;;;;;;9.35;44.23;101350.16;1735849;82;20925;-42
2022/05/05 05:00:17;;;;;;;7.62;2.30;;;;;;;9.52;44.13;101348.87;1735853;82;20921;-42
2022/05/05 05:02:43;;;;;;;1.52;1.42;;;;;;;9.66;43.70;101353.20;1735843;82;21460;-46
2022/05/05 05:05:10;;;;;;;5.95;1.57;;;;;;;9.71;43.38;101345.84;1735882;82;20961;-47
2022/05/05 05:07:37;;;;;;;4.28;1.50;;;;;;;9.77;43.42;101356.63;1735978;82;21222;-42
2022/05/05 05:10:05;;;;;;;4.33;1.40;;;;;;;9.78;42.71;101360.52;1735926;81;20913;-43
2022/05/05 05:12:32;;;;;;;3.83;1.70;;;;;;;9.76;42.85;101354.48;1735849;82;21056;-43
2022/05/05 05:14:59;;;;;;;5.78;1.70;;;;;;;9.77;43.44;101363.09;1735900;82;20941;-42
2022/05/05 05:17:25;;;;;;;3.05;1.25;;;;;;;9.86;43.04;101366.11;1736103;81;21019;-43
2022/05/05 05:19:52;;;;;;;11.12;1.85;;;;;;;9.92;42.88;101369.55;1735860;82;21151;-42
2022/05/05 05:22:18;;;;;;;2.75;1.40;;;;;;;9.93;42.60;101369.11;1735942;81;20842;-42
2022/05/05 05:24:45;;;;;;;6.50;2.20;;;;;;;9.93;42.52;101371.69;1735724;81;21391;-42
2022/05/05 05:27:12;;;;;;;5.45;1.20;;;;;;;9.97;42.79;101382.91;1735820;82;20937;-42
2022/05/05 05:29:38;;;;;;;6.90;1.80;;;;;;;10.09;42.29;101375.56;1735885;82;20952;-42
2022/05/05 05:32:07;;;;;;;9.70;1.50;;;;;;;10.18;41.35;101380.29;1715287;82;21951;-42
2022/05/05 05:34:34;;;;;;;8.65;1.40;;;;;;;10.22;41.87;101385.01;1714945;82;21012;-42
2022/05/05 05:37:00;;;;;;;11.48;1.42;;;;;;;10.40;41.33;101389.72;1735914;81;20937;-42
2022/05/05 05:39:27;;;;;;;6.47;1.60;;;;;;;10.57;41.02;101398.34;1735863;82;20929;-42
2022/05/05 05:41:54;;;;;;;2.98;1.62;;;;;;;10.75;40.06;101390.08;1735806;82;20929;-43
2022/05/05 05:44:20;;;;;;;7.28;1.75;;;;;;;10.85;39.53;101377.50;1736046;82;21962;-42
2022/05/05 05:46:47;;;;;;;4.10;1.30;;;;;;;11.01;39.25;101392.98;1714897;82;20856;-43
2022/05/05 05:49:13;;;;;;;9.20;1.40;;;;;;;11.10;38.52;101401.98;1735881;81;20956;-43
2022/05/05 05:51:41;;;;;;;4.53;1.17;;;;;;;11.16;39.30;101401.95;1735877;82;21558;-43
2022/05/05 05:54:08;;;;;;;6.97;1.55;;;;;;;11.27;38.72;101408.81;1735983;82;22030;-43
2022/05/05 05:56:35;;;;;;;9.03;1.70;;;;;;;11.26;38.11;101403.20;1715278;82;21152;-43
2022/05/05 05:59:02;;;;;;;3.52;1.00;;;;;;;11.21;38.03;101410.55;1735863;82;20917;-43
2022/05/05 06:04:14;;;;;;;9.65;2.33;;;;;;;11.31;37.45;101407.92;1735878;82;20975;-43
2022/05/05 06:06:41;;;;;;;58.33;2.83;;;;;;;11.37;36.65;101415.66;1735766;82;21375;-43
2022/05/05 06:09:08;;;;;;;7.42;1.07;;;;;;;11.48;37.36;101409.94;1735913;82;21250;-42
2022/05/05 06:11:36;;;;;;;8.33;1.60;;;;;;;11.66;36.69;101416.33;1735748;81;20933;-43
2022/05/05 06:14:04;;;;;;;6.70;1.10;;;;;;;11.77;36.77;101406.72;1735915;82;20988;-44
2022/05/05 06:16:31;;;;;;;7.17;0.98;;;;;;;11.93;36.76;101408.73;1735806;82;20977;-44
2022/05/05 06:18:57;;;;;;;5.35;1.37;;;;;;;12.02;36.41;101414.31;1735927;82;20877;-43
2022/05/05 06:21:24;;;;;;;15.10;1.50;;;;;;;12.11;36.01;101414.67;1735935;82;21196;-44
2022/05/05 06:23:50;;;;;;;7.08;1.07;;;;;;;12.19;35.22;101418.05;1735737;81;20996;-43
2022/05/05 06:26:17;;;;;;;4.15;1.55;;;;;;;12.24;34.50;101420.15;1735884;82;21511;-43
2022/05/05 06:28:43;;;;;;;7.47;1.00;;;;;;;12.24;34.51;101420.15;1735731;82;20990;-43
2022/05/05 06:31:11;;;;;;;9.65;1.98;;;;;;;12.26;33.33;101419.73;1735923;82;20917;-43
2022/05/05 06:33:38;;;;;;;6.10;1.00;;;;;;;12.27;33.85;101437.02;1735845;82;22026;-43
2022/05/05 06:36:05;;;;;;;7.17;1.80;;;;;;;12.31;34.20;101433.94;1735709;81;20952;-43
2022/05/05 06:38:33;;;;;;;1.55;0.90;;;;;;;12.42;35.01;101426.91;1735830;82;20972;-43
2022/05/05 06:41:00;;;;;;;4.78;1.27;;;;;;;12.61;33.46;101435.78;1735741;81;20890;-43
2022/05/05 06:43:27;;;;;;;5.85;1.10;;;;;;;12.70;33.28;101437.41;1736039;82;21529;-44
2022/05/05 06:45:54;;;;;;;4.60;0.85;;;;;;;12.72;33.11;101433.94;1735881;82;21147;-44
2022/05/05 06:48:21;;;;;;;1.60;1.10;;;;;;;12.77;32.77;101437.33;1735673;81;20933;-45
2022/05/05 06:50:48;;;;;;;1.20;1.10;;;;;;;12.77;32.90;101439.09;1743793;82;20984;-43
2022/05/05 06:53:14;;;;;;;5.85;1.37;;;;;;;12.75;32.64;101435.19;1744060;82;20881;-44
2022/05/05 06:55:42;;;;;;;5.35;1.17;;;;;;;12.77;32.20;101437.33;1744022;82;20873;-44
2022/05/05 06:58:08;;;;;;;6.75;1.47;;;;;;;12.80;32.57;101433.84;1744013;82;21078;-44
2022/05/05 07:07:43;;;;;;;0.70;0.70;;;;;;;13.07;30.87;101443.02;1758285;81;20932;-44
2022/05/05 07:12:56;;;;;;;1.52;0.80;;;;;;;13.13;29.68;101448.58;1758282;81;21446;-43
2022/05/05 07:15:22;;;;;;;5.97;1.00;;;;;;;13.06;29.99;101453.00;1758081;81;21105;-43
2022/05/05 07:17:49;;;;;;;3.80;0.80;;;;;;;13.00;30.57;101445.70;1757957;81;20968;-43
2022/05/05 07:20:16;;;;;;;6.08;1.10;;;;;;;12.98;31.01;101455.27;1758145;81;20972;-43
2022/05/05 07:22:43;;;;;;;6.60;1.00;;;;;;;13.07;31.51;101464.27;1758040;80;20978;-45
2022/05/05 07:25:10;;;;;;;6.45;0.93;;;;;;;13.33;31.11;101464.36;1757977;81;20980;-45
2022/05/05 07:27:38;;;;;;;7.15;1.00;;;;;;;13.56;30.13;101448.44;1758027;81;20912;-42
2022/05/05 07:30:07;;;;;;;4.40;1.15;;;;;;;13.64;29.92;101470.44;1758296;81;20905;-43
2022/05/05 07:32:34;;;;;;;20.08;1.40;;;;;;;13.71;30.40;101470.75;1758037;81;21494;-43
2022/05/05 07:35:01;;;;;;;1.00;0.88;;;;;;;13.92;30.31;101470.87;1758022;81;21201;-43
2022/05/05 07:37:27;;;;;;;4.28;0.80;;;;;;;14.08;29.75;101474.08;1758043;81;20952;-43
2022/05/05 07:39:54;;;;;;;3.62;1.12;;;;;;;14.22;29.44;101467.77;1753739;81;20873;-43
2022/05/05 07:42:20;;;;;;;1.12;0.75;;;;;;;14.29;30.37;101466.79;1749741;82;20991;-43
2022/05/05 07:44:47;;;;;;;3.20;0.82;;;;;;;14.39;28.95;101466.15;1749784;81;20948;-42
2022/05/05 07:47:13;;;;;;;2.67;0.93;;;;;;;14.44;28.57;101467.37;1749811;82;21137;-43
2022/05/05 07:49:40;;;;;;;1.12;0.93;;;;;;;14.56;28.67;101470.20;1749499;81;21019;-43
2022/05/05 07:52:07;;;;;;;4.80;0.95;;;;;;;14.63;28.06;101458.77;1749781;82;20896;-43
2022/05/05 07:54:34;;;;;;;5.92;0.90;;;;;;;14.63;28.39;101468.75;1749767;80;20896;-43
2022/05/05 07:57:02;;;;;;;3.83;0.90;;;;;;;14.66;28.44;101463.94;1749637;81;21489;-43
2022/05/05 07:59:29;;;;;;;4.33;1.20;;;;;;;14.74;28.22;101467.70;1749809;81;21332;-44
2022/05/05 08:01:56;;;;;;;8.70;0.95;;;;;;;14.85;27.73;101472.28;1749550;82;21018;-45
2022/05/05 08:04:24;;;;;;;1.37;0.82;;;;;;;14.91;27.68;101476.05;1740945;81;21450;-43
2022/05/05 08:06:51;;;;;;;4.58;1.15;;;;;;;14.96;26.96;101445.12;1736302;81;21037;-43
2022/05/05 08:09:19;;;;;;;2.85;0.93;;;;;;;14.86;26.80;101467.48;1736663;82;21594;-43
2022/05/05 08:11:47;;;;;;;11.53;1.22;;;;;;;14.90;27.24;101478.25;1736537;82;21150;-43
2022/05/05 08:14:13;;;;;;;5.35;0.90;;;;;;;15.13;27.97;101489.95;1736441;81;21005;-44
2022/05/05 08:16:41;;;;;;;3.75;0.80;;;;;;;15.27;26.45;101481.83;1735919;82;20937;-44
2022/05/05 08:19:07;;;;;;;1.20;0.80;;;;;;;15.21;26.06;101481.51;1735975;81;21348;-44
2022/05/05 08:21:34;;;;;;;3.12;0.93;;;;;;;15.13;26.63;101481.25;1735979;82;20866;-44
2022/05/05 08:29:31;;;;;;;12.82;1.00;;;;;;;15.25;26.90;101477.53;1736124;82;20929;-44
2022/05/05 08:31:58;;;;;;;13.53;1.25;;;;;;;15.19;26.46;101479.38;1735844;81;20993;-44
2022/05/05 08:34:25;;;;;;;4.40;1.07;;;;;;;15.22;26.27;101471.48;1736052;82;20929;-43
2022/05/05 08:36:52;;;;;;;4.85;1.22;;;;;;;15.41;26.16;101476.73;1736047;81;21100;-43
2022/05/05 08:39:18;;;;;;;14.68;1.00;;;;;;;15.61;26.39;101475.84;1735830;82;20937;-43
2022/05/05 08:41:46;;;;;;;5.92;1.30;;;;;;;15.71;25.81;101468.66;1735839;82;20976;-43
2022/05/05 08:44:13;;;;;;;3.67;0.80;;;;;;;15.85;25.28;101467.02;1735714;82;20936;-43
2022/05/05 08:46:40;;;;;;;1.92;0.95;;;;;;;15.80;24.26;101465.84;1735901;82;21501;-43
2022/05/05 08:49:08;;;;;;;7.45;1.10;;;;;;;15.60;25.22;101469.38;1735904;82;21146;-43
2022/05/05 08:51:40;;;;;;;3.05;1.30;;;;;;;15.70;25.60;101478.69;1736009;82;20925;-44
2022/05/05 08:54:07;;;;;;;3.30;1.10;;;;;;;15.91;24.90;101466.05;1735790;82;20953;-43
2022/05/05 08:56:34;;;;;;;1.67;0.80;;;;;;;16.01;25.05;101467.52;1735861;82;21012;-44
2022/05/05 08:59:02;;;;;;;5.85;0.90;;;;;;;16.11;24.25;101464.70;1735981;82;21506;-44
2022/05/05 09:01:38;;;;;;;5.87;1.40;;;;;;;16.15;23.74;101471.55;1735857;81;21840;-45
2022/05/05 09:04:07;;;;;;;2.12;1.30;;;;;;;16.13;23.55;101472.88;1738817;81;20988;-43
2022/05/05 09:06:46;;;;;;;1.57;0.88;;;;;;;16.18;23.89;101485.83;1743980;82;20917;-44
2022/05/05 09:09:28;;;;;;;4.55;1.12;;;;;;;16.16;23.43;101474.11;1743917;82;21553;-44
2022/05/05 09:12:17;;;;;;;3.52;1.17;;;;;;;16.12;22.77;101467.72;1743963;82;20940;-44
2022/05/05 09:14:53;;;;;;;6.05;1.07;;;;;;;15.89;23.61;101475.67;1744065;82;21404;-44
2022/05/05 09:17:22;;;;;;;8.28;0.95;;;;;;;15.92;22.81;101476.47;1744158;81;20944;-44
2022/05/05 09:19:54;;;;;;;10.23;1.00;;;;;;;16.02;22.89;101471.00;1744146;82;20968;-44
2022/05/05 09:22:24;;;;;;;3.27;1.05;;;;;;;16.02;23.48;101470.54;1744042;82;20971;-44
2022/05/05 09:24:52;;;;;;;6.95;0.90;;;;;;;16.10;22.77;101467.73;1743588;82;20999;-43
2022/05/05 09:27:33;;;;;;;3.35;0.85;;;;;;;16.17;22.51;101469.31;1744050;82;21142;-43
2022/05/05 09:30:14;;;;;;;2.60;0.80;;;;;;;16.15;23.10;101468.94;1744005;82;21015;-44
2022/05/05 09:32:44;;;;;;;5.67;0.90;;;;;;;16.17;22.46;101460.61;1743936;82;21355;-43
2022/05/05 09:35:16;;;;;;;2.75;0.70;;;;;;;15.96;22.91;101474.62;1743824;81;20975;-45
2022/05/05 09:37:50;;;;;;;5.47;0.90;;;;;;;16.02;23.63;101457.48;1743881;81;21015;-44
2022/05/05 09:40:19;;;;;;;3.47;1.25;;;;;;;16.14;22.94;101458.92;1743391;82;21387;-45
2022/05/05 09:42:49;;;;;;;3.90;0.82;;;;;;;16.14;22.79;101462.00;1744156;82;21573;-44
2022/05/05 09:46:08;;;;;;;;;;;;;;;;;;;;;
2022/05/05 09:48:31;;;;;;;;;;;;;;;16.19;22.35;101469.27;1731113;82;20917;-44
2022/05/05 09:51:00;;;;;;;3.83;1.10;;;;;;;16.19;22.22;101476.66;1728982;82;20432;-45
2022/05/05 09:58:58;;;;;;;2.25;0.90;;;;;;;16.41;22.92;101471.31;1743934;81;21040;-45
2022/05/05 10:01:31;;;;;;;1.57;0.90;;;;;;;16.57;23.16;101476.55;1711379;82;20917;-45
2022/05/05 10:04:00;;;;;;;5.83;1.17;;;;;;;16.72;23.49;101467.85;1743810;81;20956;-44
2022/05/05 10:06:34;;;;;;;1.50;0.70;;;;;;;16.88;21.87;101459.98;1749991;82;21237;-44
2022/05/05 10:09:06;;;;;;;3.30;0.90;;;;;;;16.76;21.88;101460.32;1749803;80;21085;-45
2022/05/05 10:11:33;;;;;;;3.98;1.00;;;;;;;16.87;21.58;101477.02;1749736;81;20928;-44
2022/05/05 10:14:01;;;;;;;1.25;0.80;;;;;;;17.05;22.54;101471.28;1722051;82;20932;-44
2022/05/05 10:16:30;;;;;;;2.77;0.80;;;;;;;17.28;21.14;101475.41;1749931;82;20888;-45
2022/05/05 10:18:56;;;;;;;8.85;1.27;;;;;;;17.26;20.64;101448.44;1750118;81;22074;-43
2022/05/05 10:21:52;;;;;;;3.98;1.00;;;;;;;17.18;20.65;101478.78;1749922;82;21199;-44
2022/05/05 10:24:25;;;;;;;4.63;0.70;;;;;;;17.11;21.23;101483.34;1741737;82;20936;-44
2022/05/05 10:27:00;;;;;;;2.37;0.70;;;;;;;17.11;21.23;101483.34;1749814;82;21441;-44
2022/05/05 10:29:39;;;;;;;1.35;0.78;;;;;;;17.15;21.07;101470.56;1749182;82;20983;-44
2022/05/05 10:32:22;;;;;;;5.62;0.85;;;;;;;17.09;21.33;101453.75;1749748;81;21414;-44
2022/05/05 10:35:03;;;;;;;4.12;0.82;;;;;;;16.86;22.57;101470.94;1722226;80;20976;-44
2022/05/05 10:37:36;;;;;;;0.90;0.75;;;;;;;16.86;22.16;101472.25;1736518;82;20964;-44
2022/05/05 10:40:10;;;;;;;2.15;0.80;;;;;;;16.85;22.42;101473.16;1749677;81;20987;-44
2022/05/05 10:42:45;;;;;;;3.02;1.10;;;;;;;17.08;22.29;101469.05;1738922;82;20924;-44
2022/05/05 10:45:14;;;;;;;5.97;0.80;;;;;;;17.33;22.36;101455.22;1749059;82;22058;-44
2022/05/05 10:47:58;;;;;;;6.00;1.15;;;;;;;17.40;22.76;101469.81;1749787;82;20995;-44
2022/05/05 10:50:31;;;;;;;4.90;0.90;;;;;;;17.37;21.77;101486.45;1749906;82;20897;-44
2022/05/05 10:52:58;;;;;;;5.67;0.70;;;;;;;17.38;22.75;101476.39;1749795;81;20976;-44
2022/05/05 10:55:35;;;;;;;4.12;0.85;;;;;;;17.39;21.92;101482.50;1749659;81;20909;-44
2022/05/05 10:58:01;;;;;;;2.20;0.70;;;;;;;17.36;22.48;101479.52;1748378;82;21218;-44
2022/05/05 11:00:42;;;;;;;5.80;1.05;;;;;;;17.64;21.49;101474.72;1722278;82;20904;-44
2022/05/05 11:03:14;;;;;;;2.67;0.90;;;;;;;17.75;21.45;101477.45;1749733;82;20885;-44
2022/05/05 11:05:41;;;;;;;5.58;1.10;;;;;;;17.85;21.50;101474.93;1749578;81;21502;-44
2022/05/05 11:08:20;;;;;;;6.45;0.82;;;;;;;17.84;21.77;101478.45;1749818;82;21347;-44
2022/05/05 11:13:45;;;;;;;12.00;1.35;;;;;;;17.78;21.23;101474.27;1749806;81;20877;-45
2022/05/05 11:22:17;;;;;;;4.30;0.75;;;;;;;18.36;21.71;101477.19;1749881;82;20975;-45
2022/05/05 11:24:48;;;;;;;6.30;1.50;;;;;;;18.30;21.12;101471.30;1749699;81;21035;-45
2022/05/05 11:27:20;;;;;;;1.67;0.70;;;;;;;18.15;21.23;101471.37;1749735;82;20964;-44
2022/05/05 11:29:53;;;;;;;6.08;0.90;;;;;;;18.09;21.40;101468.06;1749633;82;21466;-44
2022/05/05 11:32:21;;;;;;;7.05;1.00;;;;;;;18.14;22.03;101479.67;1749138;81;21035;-44
2022/05/05 11:34:48;;;;;;;1.60;0.62;;;;;;;18.22;21.56;101472.88;1749696;81;20896;-44
2022/05/05 11:37:15;;;;;;;1.82;0.93;;;;;;;18.30;21.66;101469.52;1750038;81;21096;-44
2022/05/05 11:39:42;;;;;;;3.05;0.95;;;;;;;18.36;20.68;101472.39;1749789;82;20888;-44
2022/05/05 11:42:10;;;;;;;2.77;0.85;;;;;;;17.96;22.15;101475.89;1749815;82;21031;-44
2022/05/05 11:44:41;;;;;;;4.45;0.90;;;;;;;17.86;21.76;101481.04;1749547;82;20987;-44
2022/05/05 11:47:19;;;;;;;2.37;1.40;;;;;;;17.79;21.84;101476.45;1749144;82;20988;-44
2022/05/05 11:49:47;;;;;;;2.72;0.90;;;;;;;17.88;21.77;101466.12;1750038;82;21138;-44
2022/05/05 11:52:24;;;;;;;5.05;1.00;;;;;;;18.01;22.81;101471.81;1749943;82;20924;-44
2022/05/05 11:54:55;;;;;;;1.12;0.70;;;;;;;18.23;21.95;101464.09;1749771;82;20975;-44
2022/05/05 11:57:37;;;;;;;1.10;0.70;;;;;;;18.29;20.93;101460.42;1749910;81;21066;-45
2022/05/05 12:02:50;;;;;;;0.75;0.65;;;;;;;18.12;21.05;101463.16;1749833;81;20951;-45
2022/05/05 12:05:18;;;;;;;4.47;0.90;;;;;;;18.18;21.08;101456.39;1743350;81;20874;-45
2022/05/05 12:07:46;;;;;;;2.47;1.00;;;;;;;18.19;20.43;101462.06;1736021;81;20921;-45
2022/05/05 12:10:15;;;;;;;11.55;1.10;;;;;;;18.23;20.74;101453.62;1736008;81;20961;-45
2022/05/05 12:12:48;;;;;;;4.00;1.00;;;;;;;18.44;21.63;101461.64;1735795;81;20913;-44
2022/05/05 12:15:16;;;;;;;6.08;0.90;;;;;;;18.64;20.99;101459.16;1736053;82;21840;-44
2022/05/05 12:17:52;;;;;;;3.15;0.93;;;;;;;18.77;21.21;101461.31;1735824;82;21486;-44
2022/05/05 12:20:20;;;;;;;1.87;0.80;;;;;;;18.75;20.89;101456.58;1735792;81;20975;-44